sensor_id;sensor_type;location;lat;lon;timestamp;P1;durP1;ratioP1;P2;durP2;ratioP2
11431;SDS011;5772;50.940;6.782;2023-04-25T00:00:45;32.50;;;30.37;;
11431;SDS011;5772;50.940;6.782;2023-04-25T00:03:10;32.97;;;30.97;;
11431;SDS011;5772;50.940;6.782;2023-04-25T00:05:36;34.00;;;31.63;;
11431;SDS011;5772;50.940;6.782;2023-04-25T00:08:01;30.60;;;28.60;;
11431;SDS011;5772;50.940;6.782;2023-04-25T00:10:27;34.37;;;32.60;;
11431;SDS011;5772;50.940;6.782;2023-04-25T00:12:54;33.93;;;31.47;;
11431;SDS011;5772;50.940;6.782;2023-04-25T00:15:19;33.90;;;32.13;;
11431;SDS011;5772;50.940;6.782;2023-04-25T00:17:44;31.17;;;29.47;;
11431;SDS011;5772;50.940;6.782;2023-04-25T00:20:10;32.90;;;31.27;;
11431;SDS011;5772;50.940;6.782;2023-04-25T00:22:36;31.70;;;30.10;;
11431;SDS011;5772;50.940;6.782;2023-04-25T00:25:02;31.13;;;29.73;;
11431;SDS011;5772;50.940;6.782;2023-04-25T00:27:28;31.73;;;30.10;;
11431;SDS011;5772;50.940;6.782;2023-04-25T00:29:54;30.23;;;28.73;;
11431;SDS011;5772;50.940;6.782;2023-04-25T00:32:20;29.73;;;28.13;;
11431;SDS011;5772;50.940;6.782;2023-04-25T00:34:45;28.33;;;26.10;;
11431;SDS011;5772;50.940;6.782;2023-04-25T00:37:10;26.43;;;25.03;;
11431;SDS011;5772;50.940;6.782;2023-04-25T00:39:36;28.13;;;26.17;;
11431;SDS011;5772;50.940;6.782;2023-04-25T00:42:01;26.20;;;24.87;;
11431;SDS011;5772;50.940;6.782;2023-04-25T00:44:27;25.80;;;24.53;;
11431;SDS011;5772;50.940;6.782;2023-04-25T00:46:55;26.13;;;24.53;;
11431;SDS011;5772;50.940;6.782;2023-04-25T00:49:21;23.90;;;22.50;;
11431;SDS011;5772;50.940;6.782;2023-04-25T00:51:46;23.93;;;22.77;;
11431;SDS011;5772;50.940;6.782;2023-04-25T00:54:11;24.33;;;22.97;;
11431;SDS011;5772;50.940;6.782;2023-04-25T00:56:37;23.00;;;21.87;;
11431;SDS011;5772;50.940;6.782;2023-04-25T00:59:03;23.07;;;21.83;;
11431;SDS011;5772;50.940;6.782;2023-04-25T01:01:28;23.83;;;22.50;;
11431;SDS011;5772;50.940;6.782;2023-04-25T01:03:55;23.77;;;22.57;;
11431;SDS011;5772;50.940;6.782;2023-04-25T01:06:21;23.17;;;21.73;;
11431;SDS011;5772;50.940;6.782;2023-04-25T01:08:46;26.40;;;24.43;;
11431;SDS011;5772;50.940;6.782;2023-04-25T01:11:12;25.03;;;23.27;;
11431;SDS011;5772;50.940;6.782;2023-04-25T01:13:37;25.30;;;24.07;;
11431;SDS011;5772;50.940;6.782;2023-04-25T01:16:03;24.97;;;23.07;;
11431;SDS011;5772;50.940;6.782;2023-04-25T01:18:28;24.77;;;23.27;;
11431;SDS011;5772;50.940;6.782;2023-04-25T01:20:55;25.57;;;24.07;;
11431;SDS011;5772;50.940;6.782;2023-04-25T01:23:27;24.87;;;22.83;;
11431;SDS011;5772;50.940;6.782;2023-04-25T01:25:53;26.13;;;24.80;;
11431;SDS011;5772;50.940;6.782;2023-04-25T01:28:18;25.33;;;24.03;;
11431;SDS011;5772;50.940;6.782;2023-04-25T01:30:44;25.20;;;23.80;;
11431;SDS011;5772;50.940;6.782;2023-04-25T01:33:10;26.80;;;24.93;;
11431;SDS011;5772;50.940;6.782;2023-04-25T01:35:36;25.67;;;24.27;;
11431;SDS011;5772;50.940;6.782;2023-04-25T01:38:03;28.70;;;26.93;;
11431;SDS011;5772;50.940;6.782;2023-04-25T01:40:28;25.83;;;24.17;;
11431;SDS011;5772;50.940;6.782;2023-04-25T01:42:54;26.57;;;25.10;;
11431;SDS011;5772;50.940;6.782;2023-04-25T01:45:19;26.60;;;24.97;;
11431;SDS011;5772;50.940;6.782;2023-04-25T01:47:45;25.60;;;23.90;;
11431;SDS011;5772;50.940;6.782;2023-04-25T01:50:11;25.33;;;23.87;;
11431;SDS011;5772;50.940;6.782;2023-04-25T01:52:36;27.27;;;25.87;;
11431;SDS011;5772;50.940;6.782;2023-04-25T01:55:03;29.03;;;27.33;;
11431;SDS011;5772;50.940;6.782;2023-04-25T01:57:28;25.53;;;24.17;;
11431;SDS011;5772;50.940;6.782;2023-04-25T01:59:54;25.00;;;23.67;;
11431;SDS011;5772;50.940;6.782;2023-04-25T02:02:26;26.83;;;25.43;;
11431;SDS011;5772;50.940;6.782;2023-04-25T02:04:52;25.23;;;23.63;;
11431;SDS011;5772;50.940;6.782;2023-04-25T02:07:17;26.47;;;25.03;;
11431;SDS011;5772;50.940;6.782;2023-04-25T02:09:42;27.00;;;25.30;;
11431;SDS011;5772;50.940;6.782;2023-04-25T02:12:09;27.40;;;25.57;;
11431;SDS011;5772;50.940;6.782;2023-04-25T02:14:35;28.00;;;26.23;;
11431;SDS011;5772;50.940;6.782;2023-04-25T02:17:00;28.17;;;26.33;;
11431;SDS011;5772;50.940;6.782;2023-04-25T02:19:26;24.97;;;23.53;;
11431;SDS011;5772;50.940;6.782;2023-04-25T02:21:51;26.33;;;24.80;;
11431;SDS011;5772;50.940;6.782;2023-04-25T02:24:16;24.27;;;22.87;;
11431;SDS011;5772;50.940;6.782;2023-04-25T02:26:42;25.07;;;23.07;;
11431;SDS011;5772;50.940;6.782;2023-04-25T02:29:08;23.93;;;22.73;;
11431;SDS011;5772;50.940;6.782;2023-04-25T02:31:34;24.10;;;22.70;;
11431;SDS011;5772;50.940;6.782;2023-04-25T02:33:59;24.37;;;22.97;;
11431;SDS011;5772;50.940;6.782;2023-04-25T02:36:25;23.53;;;22.07;;
11431;SDS011;5772;50.940;6.782;2023-04-25T02:38:50;25.47;;;23.60;;
11431;SDS011;5772;50.940;6.782;2023-04-25T02:41:15;23.77;;;22.47;;
11431;SDS011;5772;50.940;6.782;2023-04-25T02:43:41;26.00;;;24.33;;
11431;SDS011;5772;50.940;6.782;2023-04-25T02:46:07;25.47;;;23.73;;
11431;SDS011;5772;50.940;6.782;2023-04-25T02:48:33;26.33;;;24.67;;
11431;SDS011;5772;50.940;6.782;2023-04-25T02:50:58;26.67;;;25.00;;
11431;SDS011;5772;50.940;6.782;2023-04-25T02:53:23;25.27;;;23.67;;
11431;SDS011;5772;50.940;6.782;2023-04-25T02:55:49;22.93;;;21.47;;
11431;SDS011;5772;50.940;6.782;2023-04-25T02:58:14;24.70;;;23.00;;
11431;SDS011;5772;50.940;6.782;2023-04-25T03:00:40;23.80;;;22.20;;
11431;SDS011;5772;50.940;6.782;2023-04-25T03:03:06;23.50;;;22.03;;
11431;SDS011;5772;50.940;6.782;2023-04-25T03:05:32;25.47;;;24.27;;
11431;SDS011;5772;50.940;6.782;2023-04-25T03:07:57;26.83;;;25.40;;
11431;SDS011;5772;50.940;6.782;2023-04-25T03:10:22;25.77;;;24.40;;
11431;SDS011;5772;50.940;6.782;2023-04-25T03:12:48;27.97;;;26.57;;
11431;SDS011;5772;50.940;6.782;2023-04-25T03:15:13;28.27;;;26.57;;
11431;SDS011;5772;50.940;6.782;2023-04-25T03:17:38;27.00;;;25.43;;
11431;SDS011;5772;50.940;6.782;2023-04-25T03:20:06;25.43;;;24.23;;
11431;SDS011;5772;50.940;6.782;2023-04-25T03:22:32;28.13;;;26.20;;
11431;SDS011;5772;50.940;6.782;2023-04-25T03:24:58;26.37;;;24.77;;
11431;SDS011;5772;50.940;6.782;2023-04-25T03:27:23;26.30;;;24.97;;
11431;SDS011;5772;50.940;6.782;2023-04-25T03:29:48;26.20;;;24.57;;
11431;SDS011;5772;50.940;6.782;2023-04-25T03:32:14;26.97;;;25.27;;
11431;SDS011;5772;50.940;6.782;2023-04-25T03:34:39;26.13;;;24.80;;
11431;SDS011;5772;50.940;6.782;2023-04-25T03:37:06;25.80;;;24.40;;
11431;SDS011;5772;50.940;6.782;2023-04-25T03:39:31;24.93;;;23.50;;
11431;SDS011;5772;50.940;6.782;2023-04-25T03:41:56;25.97;;;24.57;;
11431;SDS011;5772;50.940;6.782;2023-04-25T03:44:22;26.87;;;25.17;;
11431;SDS011;5772;50.940;6.782;2023-04-25T03:46:47;27.33;;;25.47;;
11431;SDS011;5772;50.940;6.782;2023-04-25T03:49:13;25.30;;;23.77;;
11431;SDS011;5772;50.940;6.782;2023-04-25T03:51:38;29.07;;;27.17;;
11431;SDS011;5772;50.940;6.782;2023-04-25T03:54:05;25.60;;;23.70;;
11431;SDS011;5772;50.940;6.782;2023-04-25T03:56:30;25.83;;;24.23;;
11431;SDS011;5772;50.940;6.782;2023-04-25T03:58:55;23.90;;;22.73;;
11431;SDS011;5772;50.940;6.782;2023-04-25T04:01:21;25.03;;;23.93;;
11431;SDS011;5772;50.940;6.782;2023-04-25T04:03:46;25.20;;;23.80;;
11431;SDS011;5772;50.940;6.782;2023-04-25T04:06:11;26.63;;;25.23;;
11431;SDS011;5772;50.940;6.782;2023-04-25T04:08:37;26.73;;;24.83;;
11431;SDS011;5772;50.940;6.782;2023-04-25T04:11:04;24.50;;;22.83;;
11431;SDS011;5772;50.940;6.782;2023-04-25T04:13:29;24.70;;;23.10;;
11431;SDS011;5772;50.940;6.782;2023-04-25T04:15:54;26.37;;;24.30;;
11431;SDS011;5772;50.940;6.782;2023-04-25T04:18:20;24.93;;;23.47;;
11431;SDS011;5772;50.940;6.782;2023-04-25T04:20:46;26.03;;;24.57;;
11431;SDS011;5772;50.940;6.782;2023-04-25T04:23:11;26.03;;;24.47;;
11431;SDS011;5772;50.940;6.782;2023-04-25T04:25:36;26.93;;;24.93;;
11431;SDS011;5772;50.940;6.782;2023-04-25T04:28:03;27.17;;;25.53;;
11431;SDS011;5772;50.940;6.782;2023-04-25T04:30:28;25.57;;;23.73;;
11431;SDS011;5772;50.940;6.782;2023-04-25T04:32:54;24.57;;;22.80;;
11431;SDS011;5772;50.940;6.782;2023-04-25T04:35:20;24.00;;;22.33;;
11431;SDS011;5772;50.940;6.782;2023-04-25T04:37:45;26.03;;;24.23;;
11431;SDS011;5772;50.940;6.782;2023-04-25T04:40:11;28.60;;;26.83;;
11431;SDS011;5772;50.940;6.782;2023-04-25T04:42:36;27.17;;;25.77;;
11431;SDS011;5772;50.940;6.782;2023-04-25T04:45:03;24.83;;;23.40;;
11431;SDS011;5772;50.940;6.782;2023-04-25T04:47:29;26.27;;;24.53;;
11431;SDS011;5772;50.940;6.782;2023-04-25T04:49:54;28.60;;;26.67;;
11431;SDS011;5772;50.940;6.782;2023-04-25T04:52:20;26.43;;;24.63;;
11431;SDS011;5772;50.940;6.782;2023-04-25T04:54:45;26.53;;;24.73;;
11431;SDS011;5772;50.940;6.782;2023-04-25T04:57:10;27.73;;;25.77;;
11431;SDS011;5772;50.940;6.782;2023-04-25T04:59:36;27.30;;;25.37;;
11431;SDS011;5772;50.940;6.782;2023-04-25T05:02:02;28.27;;;26.67;;
11431;SDS011;5772;50.940;6.782;2023-04-25T05:04:28;26.33;;;25.03;;
11431;SDS011;5772;50.940;6.782;2023-04-25T05:06:53;27.40;;;25.50;;
11431;SDS011;5772;50.940;6.782;2023-04-25T05:09:18;29.30;;;27.00;;
11431;SDS011;5772;50.940;6.782;2023-04-25T05:11:44;28.30;;;26.07;;
11431;SDS011;5772;50.940;6.782;2023-04-25T05:14:09;27.40;;;25.77;;
11431;SDS011;5772;50.940;6.782;2023-04-25T05:16:34;26.17;;;24.87;;
11431;SDS011;5772;50.940;6.782;2023-04-25T05:19:01;29.17;;;26.67;;
11431;SDS011;5772;50.940;6.782;2023-04-25T05:21:27;27.00;;;25.23;;
11431;SDS011;5772;50.940;6.782;2023-04-25T05:23:52;29.30;;;26.93;;
11431;SDS011;5772;50.940;6.782;2023-04-25T05:26:18;30.97;;;27.80;;
11431;SDS011;5772;50.940;6.782;2023-04-25T05:28:43;29.50;;;27.57;;
11431;SDS011;5772;50.940;6.782;2023-04-25T05:31:09;29.00;;;26.90;;
11431;SDS011;5772;50.940;6.782;2023-04-25T05:33:34;31.40;;;29.27;;
11431;SDS011;5772;50.940;6.782;2023-04-25T05:36:01;29.33;;;27.53;;
11431;SDS011;5772;50.940;6.782;2023-04-25T05:38:27;29.73;;;28.03;;
11431;SDS011;5772;50.940;6.782;2023-04-25T05:40:52;30.60;;;28.67;;
11431;SDS011;5772;50.940;6.782;2023-04-25T05:43:17;30.83;;;29.03;;
11431;SDS011;5772;50.940;6.782;2023-04-25T05:45:43;29.13;;;27.50;;
11431;SDS011;5772;50.940;6.782;2023-04-25T05:48:08;27.27;;;25.67;;
11431;SDS011;5772;50.940;6.782;2023-04-25T05:50:33;27.90;;;26.03;;
11431;SDS011;5772;50.940;6.782;2023-04-25T05:53:00;27.20;;;25.33;;
11431;SDS011;5772;50.940;6.782;2023-04-25T05:55:25;26.23;;;24.30;;
11431;SDS011;5772;50.940;6.782;2023-04-25T05:57:51;24.10;;;22.63;;
11431;SDS011;5772;50.940;6.782;2023-04-25T06:00:16;24.70;;;22.97;;
11431;SDS011;5772;50.940;6.782;2023-04-25T06:02:42;22.87;;;20.90;;
11431;SDS011;5772;50.940;6.782;2023-04-25T06:05:07;21.83;;;20.30;;
11431;SDS011;5772;50.940;6.782;2023-04-25T06:07:33;21.07;;;19.67;;
11431;SDS011;5772;50.940;6.782;2023-04-25T06:10:00;20.53;;;19.33;;
11431;SDS011;5772;50.940;6.782;2023-04-25T06:12:25;24.93;;;23.63;;
11431;SDS011;5772;50.940;6.782;2023-04-25T06:14:50;23.60;;;21.90;;
11431;SDS011;5772;50.940;6.782;2023-04-25T06:17:16;25.53;;;24.23;;
11431;SDS011;5772;50.940;6.782;2023-04-25T06:19:41;24.63;;;22.57;;
11431;SDS011;5772;50.940;6.782;2023-04-25T06:22:07;24.17;;;22.50;;
11431;SDS011;5772;50.940;6.782;2023-04-25T06:24:32;23.97;;;22.97;;
11431;SDS011;5772;50.940;6.782;2023-04-25T06:26:59;24.80;;;23.43;;
11431;SDS011;5772;50.940;6.782;2023-04-25T06:29:24;25.37;;;24.10;;
11431;SDS011;5772;50.940;6.782;2023-04-25T06:31:50;25.03;;;23.50;;
11431;SDS011;5772;50.940;6.782;2023-04-25T06:34:15;24.87;;;23.07;;
11431;SDS011;5772;50.940;6.782;2023-04-25T06:36:40;24.73;;;23.23;;
11431;SDS011;5772;50.940;6.782;2023-04-25T06:39:06;22.90;;;21.70;;
11431;SDS011;5772;50.940;6.782;2023-04-25T06:41:31;23.40;;;21.67;;
11431;SDS011;5772;50.940;6.782;2023-04-25T06:43:58;23.10;;;22.00;;
11431;SDS011;5772;50.940;6.782;2023-04-25T06:46:23;22.27;;;20.93;;
11431;SDS011;5772;50.940;6.782;2023-04-25T06:48:48;20.77;;;19.40;;
11431;SDS011;5772;50.940;6.782;2023-04-25T06:51:14;20.57;;;19.33;;
11431;SDS011;5772;50.940;6.782;2023-04-25T06:53:39;22.37;;;20.77;;
11431;SDS011;5772;50.940;6.782;2023-04-25T06:56:05;21.83;;;19.80;;
11431;SDS011;5772;50.940;6.782;2023-04-25T06:58:30;20.27;;;18.90;;
11431;SDS011;5772;50.940;6.782;2023-04-25T07:00:57;20.20;;;19.20;;
11431;SDS011;5772;50.940;6.782;2023-04-25T07:03:22;19.13;;;17.93;;
11431;SDS011;5772;50.940;6.782;2023-04-25T07:05:48;19.00;;;18.00;;
11431;SDS011;5772;50.940;6.782;2023-04-25T07:08:13;20.37;;;18.97;;
11431;SDS011;5772;50.940;6.782;2023-04-25T07:10:38;20.73;;;19.63;;
11431;SDS011;5772;50.940;6.782;2023-04-25T07:13:04;26.50;;;24.80;;
11431;SDS011;5772;50.940;6.782;2023-04-25T07:15:29;19.70;;;18.33;;
11431;SDS011;5772;50.940;6.782;2023-04-25T07:17:56;22.07;;;20.07;;
11431;SDS011;5772;50.940;6.782;2023-04-25T07:20:21;20.43;;;19.43;;
11431;SDS011;5772;50.940;6.782;2023-04-25T07:22:46;21.17;;;19.80;;
11431;SDS011;5772;50.940;6.782;2023-04-25T07:25:12;19.27;;;18.17;;
11431;SDS011;5772;50.940;6.782;2023-04-25T07:27:37;18.27;;;17.10;;
11431;SDS011;5772;50.940;6.782;2023-04-25T07:30:03;18.97;;;17.83;;
11431;SDS011;5772;50.940;6.782;2023-04-25T07:32:29;18.73;;;17.67;;
11431;SDS011;5772;50.940;6.782;2023-04-25T07:34:56;18.87;;;17.87;;
11431;SDS011;5772;50.940;6.782;2023-04-25T07:37:21;19.00;;;18.00;;
11431;SDS011;5772;50.940;6.782;2023-04-25T07:39:47;18.47;;;17.50;;
11431;SDS011;5772;50.940;6.782;2023-04-25T07:42:12;19.80;;;18.90;;
11431;SDS011;5772;50.940;6.782;2023-04-25T07:44:37;18.70;;;17.80;;
11431;SDS011;5772;50.940;6.782;2023-04-25T07:47:03;18.97;;;17.97;;
11431;SDS011;5772;50.940;6.782;2023-04-25T07:49:29;18.27;;;17.37;;
11431;SDS011;5772;50.940;6.782;2023-04-25T07:51:55;19.87;;;18.80;;
11431;SDS011;5772;50.940;6.782;2023-04-25T07:54:21;18.47;;;17.57;;
11431;SDS011;5772;50.940;6.782;2023-04-25T07:56:46;21.00;;;19.63;;
11431;SDS011;5772;50.940;6.782;2023-04-25T07:59:11;20.77;;;19.10;;
11431;SDS011;5772;50.940;6.782;2023-04-25T08:01:37;21.30;;;19.97;;
11431;SDS011;5772;50.940;6.782;2023-04-25T08:04:02;19.17;;;18.27;;
11431;SDS011;5772;50.940;6.782;2023-04-25T08:06:28;19.93;;;18.27;;
11431;SDS011;5772;50.940;6.782;2023-04-25T08:08:54;20.13;;;18.77;;
11431;SDS011;5772;50.940;6.782;2023-04-25T08:11:20;19.53;;;18.33;;
11431;SDS011;5772;50.940;6.782;2023-04-25T08:13:45;19.53;;;18.57;;
11431;SDS011;5772;50.940;6.782;2023-04-25T08:16:10;18.60;;;17.60;;
11431;SDS011;5772;50.940;6.782;2023-04-25T08:18:36;19.60;;;18.23;;
11431;SDS011;5772;50.940;6.782;2023-04-25T08:21:01;19.67;;;18.37;;
11431;SDS011;5772;50.940;6.782;2023-04-25T08:23:26;18.60;;;17.60;;
11431;SDS011;5772;50.940;6.782;2023-04-25T08:25:53;18.73;;;17.43;;
11431;SDS011;5772;50.940;6.782;2023-04-25T08:28:18;19.07;;;18.23;;
11431;SDS011;5772;50.940;6.782;2023-04-25T08:30:44;19.67;;;18.57;;
11431;SDS011;5772;50.940;6.782;2023-04-25T08:33:09;19.10;;;18.10;;
11431;SDS011;5772;50.940;6.782;2023-04-25T08:35:34;20.27;;;19.13;;
11431;SDS011;5772;50.940;6.782;2023-04-25T08:38:00;18.70;;;17.70;;
11431;SDS011;5772;50.940;6.782;2023-04-25T08:40:26;19.70;;;18.63;;
11431;SDS011;5772;50.940;6.782;2023-04-25T08:42:54;18.40;;;17.57;;
11431;SDS011;5772;50.940;6.782;2023-04-25T08:45:20;19.70;;;18.50;;
11431;SDS011;5772;50.940;6.782;2023-04-25T08:47:46;19.10;;;17.63;;
11431;SDS011;5772;50.940;6.782;2023-04-25T08:50:12;18.53;;;17.33;;
11431;SDS011;5772;50.940;6.782;2023-04-25T08:52:39;18.60;;;17.50;;
11431;SDS011;5772;50.940;6.782;2023-04-25T08:55:09;19.57;;;18.57;;
11431;SDS011;5772;50.940;6.782;2023-04-25T08:57:34;19.47;;;18.27;;
11431;SDS011;5772;50.940;6.782;2023-04-25T09:00:01;18.67;;;17.50;;
11431;SDS011;5772;50.940;6.782;2023-04-25T09:02:27;19.60;;;18.70;;
11431;SDS011;5772;50.940;6.782;2023-04-25T09:04:53;18.73;;;17.63;;
11431;SDS011;5772;50.940;6.782;2023-04-25T09:07:19;19.27;;;18.07;;
11431;SDS011;5772;50.940;6.782;2023-04-25T09:09:44;18.33;;;17.37;;
11431;SDS011;5772;50.940;6.782;2023-04-25T09:12:09;18.87;;;17.70;;
11431;SDS011;5772;50.940;6.782;2023-04-25T09:14:35;20.27;;;18.80;;
11431;SDS011;5772;50.940;6.782;2023-04-25T09:17:03;19.73;;;18.30;;
11431;SDS011;5772;50.940;6.782;2023-04-25T09:19:29;17.97;;;17.10;;
11431;SDS011;5772;50.940;6.782;2023-04-25T09:21:56;21.17;;;19.93;;
11431;SDS011;5772;50.940;6.782;2023-04-25T09:24:30;20.30;;;19.10;;
11431;SDS011;5772;50.940;6.782;2023-04-25T09:26:56;20.87;;;19.77;;
11431;SDS011;5772;50.940;6.782;2023-04-25T09:29:24;18.97;;;18.07;;
11431;SDS011;5772;50.940;6.782;2023-04-25T09:31:54;21.40;;;20.20;;
11431;SDS011;5772;50.940;6.782;2023-04-25T09:34:38;21.40;;;20.03;;
11431;SDS011;5772;50.940;6.782;2023-04-25T09:37:04;20.70;;;19.70;;
11431;SDS011;5772;50.940;6.782;2023-04-25T09:39:30;20.27;;;19.17;;
11431;SDS011;5772;50.940;6.782;2023-04-25T09:41:57;20.03;;;18.80;;
11431;SDS011;5772;50.940;6.782;2023-04-25T09:44:24;20.30;;;19.30;;
11431;SDS011;5772;50.940;6.782;2023-04-25T09:46:49;22.47;;;21.07;;
11431;SDS011;5772;50.940;6.782;2023-04-25T09:49:16;21.53;;;20.23;;
11431;SDS011;5772;50.940;6.782;2023-04-25T09:51:41;21.83;;;20.43;;
11431;SDS011;5772;50.940;6.782;2023-04-25T09:54:06;22.80;;;20.83;;
11431;SDS011;5772;50.940;6.782;2023-04-25T09:56:32;19.70;;;18.27;;
11431;SDS011;5772;50.940;6.782;2023-04-25T09:59:01;18.87;;;17.87;;
11431;SDS011;5772;50.940;6.782;2023-04-25T10:01:26;19.30;;;17.87;;
11431;SDS011;5772;50.940;6.782;2023-04-25T10:03:52;19.30;;;18.27;;
11431;SDS011;5772;50.940;6.782;2023-04-25T10:06:21;19.93;;;18.73;;
11431;SDS011;5772;50.940;6.782;2023-04-25T10:08:48;19.00;;;18.10;;
11431;SDS011;5772;50.940;6.782;2023-04-25T10:11:15;17.93;;;16.73;;
11431;SDS011;5772;50.940;6.782;2023-04-25T10:13:42;19.43;;;18.53;;
11431;SDS011;5772;50.940;6.782;2023-04-25T10:16:07;20.03;;;18.93;;
11431;SDS011;5772;50.940;6.782;2023-04-25T10:18:33;21.50;;;20.40;;
11431;SDS011;5772;50.940;6.782;2023-04-25T10:21:00;21.57;;;20.57;;
11431;SDS011;5772;50.940;6.782;2023-04-25T10:23:27;21.70;;;20.53;;
11431;SDS011;5772;50.940;6.782;2023-04-25T10:25:54;20.50;;;19.33;;
11431;SDS011;5772;50.940;6.782;2023-04-25T10:28:20;21.03;;;19.80;;
11431;SDS011;5772;50.940;6.782;2023-04-25T10:30:58;22.73;;;21.30;;
11431;SDS011;5772;50.940;6.782;2023-04-25T10:33:29;19.70;;;18.90;;
11431;SDS011;5772;50.940;6.782;2023-04-25T10:35:54;19.60;;;18.67;;
11431;SDS011;5772;50.940;6.782;2023-04-25T10:38:22;19.90;;;18.77;;
11431;SDS011;5772;50.940;6.782;2023-04-25T10:43:33;16.73;;;15.83;;
11431;SDS011;5772;50.940;6.782;2023-04-25T10:46:00;18.17;;;16.70;;
11431;SDS011;5772;50.940;6.782;2023-04-25T10:48:25;18.37;;;17.43;;
11431;SDS011;5772;50.940;6.782;2023-04-25T10:50:53;18.97;;;17.90;;
11431;SDS011;5772;50.940;6.782;2023-04-25T10:53:33;19.13;;;18.13;;
11431;SDS011;5772;50.940;6.782;2023-04-25T10:55:58;20.70;;;19.33;;
11431;SDS011;5772;50.940;6.782;2023-04-25T10:58:25;18.10;;;17.40;;
11431;SDS011;5772;50.940;6.782;2023-04-25T11:00:50;23.00;;;22.00;;
11431;SDS011;5772;50.940;6.782;2023-04-25T11:03:16;24.27;;;23.27;;
11431;SDS011;5772;50.940;6.782;2023-04-25T11:05:41;21.03;;;19.93;;
11431;SDS011;5772;50.940;6.782;2023-04-25T11:08:10;23.10;;;22.00;;
11431;SDS011;5772;50.940;6.782;2023-04-25T11:10:36;19.57;;;18.50;;
11431;SDS011;5772;50.940;6.782;2023-04-25T11:13:02;19.00;;;17.97;;
11431;SDS011;5772;50.940;6.782;2023-04-25T11:15:29;22.83;;;21.23;;
11431;SDS011;5772;50.940;6.782;2023-04-25T11:17:54;21.33;;;19.97;;
11431;SDS011;5772;50.940;6.782;2023-04-25T11:20:20;21.77;;;20.17;;
11431;SDS011;5772;50.940;6.782;2023-04-25T11:22:46;23.00;;;21.80;;
11431;SDS011;5772;50.940;6.782;2023-04-25T11:25:12;19.00;;;17.60;;
11431;SDS011;5772;50.940;6.782;2023-04-25T11:27:39;20.80;;;19.20;;
11431;SDS011;5772;50.940;6.782;2023-04-25T11:30:14;18.60;;;17.47;;
11431;SDS011;5772;50.940;6.782;2023-04-25T11:32:41;17.90;;;16.97;;
11431;SDS011;5772;50.940;6.782;2023-04-25T11:35:07;19.63;;;18.40;;
11431;SDS011;5772;50.940;6.782;2023-04-25T11:37:33;20.03;;;18.70;;
11431;SDS011;5772;50.940;6.782;2023-04-25T11:39:58;18.70;;;17.77;;
11431;SDS011;5772;50.940;6.782;2023-04-25T11:42:24;20.07;;;18.77;;
11431;SDS011;5772;50.940;6.782;2023-04-25T11:44:49;21.23;;;19.70;;
11431;SDS011;5772;50.940;6.782;2023-04-25T11:47:15;19.70;;;18.00;;
11431;SDS011;5772;50.940;6.782;2023-04-25T11:49:41;19.00;;;18.10;;
11431;SDS011;5772;50.940;6.782;2023-04-25T11:52:07;17.17;;;16.37;;
11431;SDS011;5772;50.940;6.782;2023-04-25T11:54:34;16.37;;;15.67;;
11431;SDS011;5772;50.940;6.782;2023-04-25T11:57:00;18.30;;;17.50;;
11431;SDS011;5772;50.940;6.782;2023-04-25T11:59:25;19.10;;;18.10;;
11431;SDS011;5772;50.940;6.782;2023-04-25T12:01:51;16.93;;;16.13;;
11431;SDS011;5772;50.940;6.782;2023-04-25T12:04:17;17.83;;;17.07;;
11431;SDS011;5772;50.940;6.782;2023-04-25T12:06:44;17.00;;;16.00;;
11431;SDS011;5772;50.940;6.782;2023-04-25T12:09:11;15.53;;;14.83;;
11431;SDS011;5772;50.940;6.782;2023-04-25T12:11:43;17.73;;;17.03;;
11431;SDS011;5772;50.940;6.782;2023-04-25T12:14:09;16.40;;;15.65;;
11431;SDS011;5772;50.940;6.782;2023-04-25T12:16:41;15.55;;;14.85;;
11431;SDS011;5772;50.940;6.782;2023-04-25T12:19:07;16.83;;;16.02;;
11431;SDS011;5772;50.940;6.782;2023-04-25T12:21:32;17.67;;;16.98;;
11431;SDS011;5772;50.940;6.782;2023-04-25T12:24:09;16.48;;;15.50;;
11431;SDS011;5772;50.940;6.782;2023-04-25T12:26:45;15.45;;;14.55;;
11431;SDS011;5772;50.940;6.782;2023-04-25T12:29:14;15.57;;;14.88;;
11431;SDS011;5772;50.940;6.782;2023-04-25T12:31:40;16.05;;;15.15;;
11431;SDS011;5772;50.940;6.782;2023-04-25T12:34:06;17.27;;;16.37;;
11431;SDS011;5772;50.940;6.782;2023-04-25T12:36:31;15.83;;;15.10;;
11431;SDS011;5772;50.940;6.782;2023-04-25T12:38:56;17.63;;;16.83;;
11431;SDS011;5772;50.940;6.782;2023-04-25T12:41:23;16.60;;;15.90;;
11431;SDS011;5772;50.940;6.782;2023-04-25T12:43:49;16.97;;;16.27;;
11431;SDS011;5772;50.940;6.782;2023-04-25T12:46:14;19.07;;;18.27;;
11431;SDS011;5772;50.940;6.782;2023-04-25T12:48:39;19.67;;;18.60;;
11431;SDS011;5772;50.940;6.782;2023-04-25T12:51:05;17.97;;;16.87;;
11431;SDS011;5772;50.940;6.782;2023-04-25T12:53:30;15.73;;;15.07;;
11431;SDS011;5772;50.940;6.782;2023-04-25T12:55:55;16.23;;;15.33;;
11431;SDS011;5772;50.940;6.782;2023-04-25T12:58:22;17.30;;;16.50;;
11431;SDS011;5772;50.940;6.782;2023-04-25T13:00:48;19.60;;;18.70;;
11431;SDS011;5772;50.940;6.782;2023-04-25T13:03:13;20.63;;;19.33;;
11431;SDS011;5772;50.940;6.782;2023-04-25T13:05:38;22.23;;;21.33;;
11431;SDS011;5772;50.940;6.782;2023-04-25T13:08:04;18.30;;;17.50;;
11431;SDS011;5772;50.940;6.782;2023-04-25T13:10:29;17.70;;;16.90;;
11431;SDS011;5772;50.940;6.782;2023-04-25T13:12:55;17.13;;;16.33;;
11431;SDS011;5772;50.940;6.782;2023-04-25T13:15:22;18.83;;;17.80;;
11431;SDS011;5772;50.940;6.782;2023-04-25T13:17:47;17.27;;;16.47;;
11431;SDS011;5772;50.940;6.782;2023-04-25T13:20:12;18.43;;;17.13;;
11431;SDS011;5772;50.940;6.782;2023-04-25T13:22:38;17.50;;;16.70;;
11431;SDS011;5772;50.940;6.782;2023-04-25T13:25:04;18.77;;;17.93;;
11431;SDS011;5772;50.940;6.782;2023-04-25T13:27:30;19.83;;;18.60;;
11431;SDS011;5772;50.940;6.782;2023-04-25T13:29:55;18.00;;;17.30;;
11431;SDS011;5772;50.940;6.782;2023-04-25T13:32:22;19.07;;;18.00;;
11431;SDS011;5772;50.940;6.782;2023-04-25T13:34:48;17.07;;;16.27;;
11431;SDS011;5772;50.940;6.782;2023-04-25T13:37:13;16.83;;;15.93;;
11431;SDS011;5772;50.940;6.782;2023-04-25T13:39:38;16.83;;;16.13;;
11431;SDS011;5772;50.940;6.782;2023-04-25T13:42:04;16.80;;;15.87;;
11431;SDS011;5772;50.940;6.782;2023-04-25T13:44:29;19.43;;;18.30;;
11431;SDS011;5772;50.940;6.782;2023-04-25T13:46:54;15.90;;;15.20;;
11431;SDS011;5772;50.940;6.782;2023-04-25T13:49:21;16.87;;;16.03;;
11431;SDS011;5772;50.940;6.782;2023-04-25T13:51:46;17.10;;;16.40;;
11431;SDS011;5772;50.940;6.782;2023-04-25T13:54:12;17.57;;;16.57;;
11431;SDS011;5772;50.940;6.782;2023-04-25T13:56:37;17.60;;;16.67;;
11431;SDS011;5772;50.940;6.782;2023-04-25T13:59:03;16.97;;;16.17;;
11431;SDS011;5772;50.940;6.782;2023-04-25T14:01:28;17.80;;;17.00;;
11431;SDS011;5772;50.940;6.782;2023-04-25T14:03:53;18.87;;;17.87;;
11431;SDS011;5772;50.940;6.782;2023-04-25T14:06:20;16.37;;;15.47;;
11431;SDS011;5772;50.940;6.782;2023-04-25T14:08:45;16.57;;;15.73;;
11431;SDS011;5772;50.940;6.782;2023-04-25T14:11:11;16.67;;;15.53;;
11431;SDS011;5772;50.940;6.782;2023-04-25T14:13:36;16.33;;;15.63;;
11431;SDS011;5772;50.940;6.782;2023-04-25T14:16:02;16.17;;;15.47;;
11431;SDS011;5772;50.940;6.782;2023-04-25T14:18:27;17.60;;;16.80;;
11431;SDS011;5772;50.940;6.782;2023-04-25T14:20:52;16.97;;;16.17;;
11431;SDS011;5772;50.940;6.782;2023-04-25T14:23:19;16.50;;;15.80;;
11431;SDS011;5772;50.940;6.782;2023-04-25T14:25:44;18.20;;;17.30;;
11431;SDS011;5772;50.940;6.782;2023-04-25T14:28:10;17.47;;;16.43;;